Time;durP1;ratioP1;P1;durP2;ratioP2;P2;SDS_P1;SDS_P2;PMS_P1;PMS_P2;Temp;Humidity;BMP_temperature;BMP_pressure;BME280_temperature;BME280_humidity;BME280_pressure;Samples;Min_cycle;Max_cycle;Signal;HPM_P1;HPM_P2
2023/12/03 00:02:02;;;;;;;25.80;16.10;;;;;;;;;;5053290;28;20774;-58
2023/12/03 00:04:29;;;;;;;25.73;16.50;;;;;;;;;;5053485;28;20489;-58
2023/12/03 00:06:55;;;;;;;24.37;15.30;;;;;;;;;;5053355;28;20451;-58
2023/12/03 00:09:21;;;;;;;29.73;16.77;;;;;;;;;;5052866;28;20484;-58
2023/12/03 00:11:47;;;;;;;27.13;16.87;;;;;;;;;;5053484;28;20459;-57
2023/12/03 00:14:13;;;;;;;30.10;17.30;;;;;;;;;;5051286;28;20435;-57
2023/12/03 00:16:40;;;;;;;29.43;17.17;;;;;;;;;;5051638;28;20462;-57
2023/12/03 00:19:06;;;;;;;27.87;17.80;;;;;;;;;;5025904;28;20502;-58
2023/12/03 00:21:33;;;;;;;31.67;18.33;;;;;;;;;;5033077;28;20443;-57
2023/12/03 00:23:59;;;;;;;30.80;18.70;;;;;;;;;;5033069;28;20534;-57
2023/12/03 00:26:25;;;;;;;32.03;17.97;;;;;;;;;;5032700;28;20475;-57
2023/12/03 00:28:51;;;;;;;29.63;18.33;;;;;;;;;;5033096;28;20472;-57
2023/12/03 00:31:17;;;;;;;33.17;18.47;;;;;;;;;;5032880;28;20192;-57
2023/12/03 00:33:44;;;;;;;30.47;18.70;;;;;;;;;;5033041;28;20525;-58
2023/12/03 00:36:10;;;;;;;27.97;17.33;;;;;;;;;;5032921;28;20203;-57
2023/12/03 00:38:36;;;;;;;32.77;18.47;;;;;;;;;;5032410;28;20541;-58
2023/12/03 00:41:02;;;;;;;34.17;19.93;;;;;;;;;;5032604;28;20443;-57
2023/12/03 00:43:28;;;;;;;31.63;17.80;;;;;;;;;;5033025;28;20243;-57
2023/12/03 00:45:54;;;;;;;31.73;18.50;;;;;;;;;;5032569;28;20240;-57
2023/12/03 00:48:21;;;;;;;32.77;20.27;;;;;;;;;;5032528;28;20436;-57
2023/12/03 00:50:48;;;;;;;28.80;18.20;;;;;;;;;;5032327;28;20436;-57
2023/12/03 00:53:14;;;;;;;32.83;19.17;;;;;;;;;;5064351;28;20453;-58
2023/12/03 00:55:40;;;;;;;35.73;20.90;;;;;;;;;;5072559;28;20529;-58
2023/12/03 00:58:07;;;;;;;37.23;21.23;;;;;;;;;;5072179;28;20569;-58
2023/12/03 01:00:33;;;;;;;35.67;20.63;;;;;;;;;;5072501;28;20203;-58
2023/12/03 01:02:59;;;;;;;33.13;20.57;;;;;;;;;;5071501;28;20430;-58
2023/12/03 01:05:25;;;;;;;38.97;22.10;;;;;;;;;;5072144;28;20608;-58
2023/12/03 01:07:52;;;;;;;40.20;22.90;;;;;;;;;;5068648;28;20187;-57
2023/12/03 01:10:18;;;;;;;37.63;21.87;;;;;;;;;;5070198;28;20856;-58
2023/12/03 01:12:44;;;;;;;39.43;23.33;;;;;;;;;;5072191;28;20457;-57
2023/12/03 01:15:10;;;;;;;38.03;22.03;;;;;;;;;;5071996;28;20206;-56
2023/12/03 01:17:36;;;;;;;42.37;23.83;;;;;;;;;;5072002;28;20191;-58
2023/12/03 01:20:02;;;;;;;43.07;23.30;;;;;;;;;;5071918;28;20654;-56
2023/12/03 01:22:28;;;;;;;39.53;23.93;;;;;;;;;;5072130;28;20441;-57
2023/12/03 01:24:56;;;;;;;41.90;23.83;;;;;;;;;;5072081;28;20852;-56
2023/12/03 01:27:22;;;;;;;38.60;23.37;;;;;;;;;;5071900;28;20282;-57
2023/12/03 01:29:48;;;;;;;33.13;22.07;;;;;;;;;;5072150;28;20513;-57
2023/12/03 01:32:14;;;;;;;37.93;23.33;;;;;;;;;;5071883;28;20230;-57
2023/12/03 01:34:40;;;;;;;39.07;24.30;;;;;;;;;;5072087;28;20465;-56
2023/12/03 01:37:06;;;;;;;41.53;25.20;;;;;;;;;;5072006;28;20449;-57
2023/12/03 01:39:32;;;;;;;41.00;24.57;;;;;;;;;;5071683;28;20713;-57
2023/12/03 01:41:59;;;;;;;41.67;25.70;;;;;;;;;;5071939;28;20434;-56
2023/12/03 01:44:25;;;;;;;42.70;24.70;;;;;;;;;;5071641;28;20280;-55
2023/12/03 01:46:51;;;;;;;43.90;25.63;;;;;;;;;;5071766;28;20503;-57
2023/12/03 01:49:18;;;;;;;39.30;23.73;;;;;;;;;;5071824;28;20192;-58
2023/12/03 01:51:44;;;;;;;41.30;24.90;;;;;;;;;;5071763;28;20425;-57
2023/12/03 01:54:10;;;;;;;39.50;25.23;;;;;;;;;;5071520;28;20436;-57
2023/12/03 01:56:36;;;;;;;40.53;25.47;;;;;;;;;;5071717;28;20476;-57
2023/12/03 01:59:04;;;;;;;43.47;25.63;;;;;;;;;;5071641;28;20477;-58
2023/12/03 02:01:30;;;;;;;43.27;26.73;;;;;;;;;;5071723;28;20445;-58
2023/12/03 02:03:56;;;;;;;43.70;24.57;;;;;;;;;;5071785;28;20453;-58
2023/12/03 02:06:22;;;;;;;44.20;26.07;;;;;;;;;;5071414;28;20441;-59
2023/12/03 02:08:48;;;;;;;41.77;26.40;;;;;;;;;;5071745;28;20211;-60
2023/12/03 02:11:14;;;;;;;41.33;25.57;;;;;;;;;;5071547;28;20716;-58
2023/12/03 02:13:40;;;;;;;40.87;25.67;;;;;;;;;;5073608;28;20443;-58
2023/12/03 02:16:08;;;;;;;40.60;24.57;;;;;;;;;;5075490;28;20472;-58
2023/12/03 02:18:35;;;;;;;39.20;25.33;;;;;;;;;;5075418;28;20483;-58
2023/12/03 02:21:01;;;;;;;38.50;24.37;;;;;;;;;;5075474;28;20935;-57
2023/12/03 02:23:29;;;;;;;41.10;24.57;;;;;;;;;;5075406;28;20433;-58
2023/12/03 02:25:55;;;;;;;35.57;22.50;;;;;;;;;;5075241;28;20990;-58
2023/12/03 02:28:21;;;;;;;40.70;24.33;;;;;;;;;;5075498;28;20430;-58
2023/12/03 02:30:47;;;;;;;35.00;22.77;;;;;;;;;;5075304;28;20434;-58
2023/12/03 02:33:13;;;;;;;40.13;22.87;;;;;;;;;;5075226;28;20462;-57
2023/12/03 02:35:39;;;;;;;40.57;23.60;;;;;;;;;;5075328;28;20207;-57
2023/12/03 02:38:05;;;;;;;41.73;25.17;;;;;;;;;;5074942;28;20468;-58
2023/12/03 02:40:33;;;;;;;37.57;24.23;;;;;;;;;;5075215;28;20195;-58
2023/12/03 02:42:59;;;;;;;39.73;23.83;;;;;;;;;;5075002;28;20947;-57
2023/12/03 02:45:25;;;;;;;38.10;24.50;;;;;;;;;;5074870;28;20477;-57
2023/12/03 02:47:51;;;;;;;37.23;24.20;;;;;;;;;;5075019;28;20805;-57
2023/12/03 02:50:17;;;;;;;44.30;24.83;;;;;;;;;;5074989;28;20200;-57
2023/12/03 02:52:43;;;;;;;38.00;24.17;;;;;;;;;;5075107;28;20491;-57
2023/12/03 02:55:09;;;;;;;41.67;24.87;;;;;;;;;;5074722;28;20286;-57
2023/12/03 02:57:36;;;;;;;40.60;23.10;;;;;;;;;;5074893;28;20196;-57
2023/12/03 03:00:03;;;;;;;36.23;24.30;;;;;;;;;;5074541;28;20943;-57
2023/12/03 03:02:29;;;;;;;41.20;25.10;;;;;;;;;;5074588;28;20426;-58
2023/12/03 03:04:55;;;;;;;36.77;23.87;;;;;;;;;;5074821;28;20929;-58
2023/12/03 03:07:21;;;;;;;38.03;24.97;;;;;;;;;;5074504;28;20222;-58
2023/12/03 03:09:47;;;;;;;40.23;24.40;;;;;;;;;;5074569;28;20270;-58
2023/12/03 03:12:12;;;;;;;41.03;24.83;;;;;;;;;;5074493;28;20195;-58
2023/12/03 03:14:40;;;;;;;39.87;24.90;;;;;;;;;;5074571;28;20450;-58
2023/12/03 03:17:06;;;;;;;39.93;24.00;;;;;;;;;;5074442;28;20203;-57
2023/12/03 03:19:32;;;;;;;41.53;24.67;;;;;;;;;;5074461;28;20495;-58
2023/12/03 03:21:58;;;;;;;40.53;23.80;;;;;;;;;;5074573;28;20191;-58
2023/12/03 03:24:24;;;;;;;41.43;25.50;;;;;;;;;;5073765;28;20211;-58
2023/12/03 03:26:50;;;;;;;40.00;25.37;;;;;;;;;;5074111;28;20227;-56
2023/12/03 03:29:16;;;;;;;39.63;25.23;;;;;;;;;;5074300;28;20597;-56
2023/12/03 03:31:43;;;;;;;41.77;24.00;;;;;;;;;;5074226;28;20574;-56
2023/12/03 03:34:09;;;;;;;42.30;25.17;;;;;;;;;;5074100;28;20265;-58
2023/12/03 03:36:35;;;;;;;43.93;25.43;;;;;;;;;;5074037;28;20437;-58
2023/12/03 03:39:01;;;;;;;41.83;25.23;;;;;;;;;;5073786;28;20227;-58
2023/12/03 03:41:27;;;;;;;45.40;25.93;;;;;;;;;;5073868;28;20195;-58
2023/12/03 03:43:53;;;;;;;44.27;25.63;;;;;;;;;;5073849;28;20960;-58
2023/12/03 03:46:20;;;;;;;39.70;24.27;;;;;;;;;;5073849;28;20558;-59
2023/12/03 03:48:47;;;;;;;43.73;25.87;;;;;;;;;;5073930;28;20196;-58
2023/12/03 03:51:13;;;;;;;40.67;25.10;;;;;;;;;;5073783;28;20442;-58
2023/12/03 03:53:39;;;;;;;41.23;24.57;;;;;;;;;;5073862;28;20446;-58
2023/12/03 03:56:07;;;;;;;39.80;24.90;;;;;;;;;;5073751;28;20203;-58
2023/12/03 03:58:32;;;;;;;41.67;24.67;;;;;;;;;;5073693;28;20230;-58
2023/12/03 04:00:58;;;;;;;41.17;24.20;;;;;;;;;;5073683;28;20513;-58
2023/12/03 04:03:24;;;;;;;36.07;23.90;;;;;;;;;;5073461;28;20670;-58
2023/12/03 04:05:52;;;;;;;35.70;23.07;;;;;;;;;;5073545;28;20196;-58
2023/12/03 04:08:19;;;;;;;40.07;23.70;;;;;;;;;;5073334;28;20183;-58
2023/12/03 04:10:45;;;;;;;37.50;24.23;;;;;;;;;;5073310;28;20938;-58
2023/12/03 04:13:11;;;;;;;35.50;23.17;;;;;;;;;;5073566;28;20513;-58
2023/12/03 04:15:37;;;;;;;42.20;25.47;;;;;;;;;;5073304;28;20282;-58
2023/12/03 04:18:03;;;;;;;40.43;24.20;;;;;;;;;;5073141;28;20473;-58
2023/12/03 04:20:29;;;;;;;39.23;23.47;;;;;;;;;;5073206;28;20192;-58
2023/12/03 04:22:57;;;;;;;39.30;24.50;;;;;;;;;;5073287;28;20457;-58
2023/12/03 04:25:23;;;;;;;34.97;21.90;;;;;;;;;;5073168;28;20438;-57
2023/12/03 04:27:49;;;;;;;38.37;23.53;;;;;;;;;;5072992;28;20450;-58
2023/12/03 04:30:15;;;;;;;35.47;22.97;;;;;;;;;;5073133;28;20481;-60
2023/12/03 04:32:41;;;;;;;39.57;24.57;;;;;;;;;;5073157;28;20256;-57
2023/12/03 04:35:08;;;;;;;38.23;22.57;;;;;;;;;;5072745;28;20434;-57
2023/12/03 04:37:34;;;;;;;38.83;23.37;;;;;;;;;;5072000;28;20442;-58
2023/12/03 04:40:01;;;;;;;46.00;24.93;;;;;;;;;;5072728;28;20484;-57
2023/12/03 04:42:27;;;;;;;42.90;25.67;;;;;;;;;;5072698;28;20485;-58
2023/12/03 04:44:53;;;;;;;42.07;25.70;;;;;;;;;;5072640;28;20508;-58
2023/12/03 04:47:19;;;;;;;38.63;24.60;;;;;;;;;;5072556;28;20658;-58
2023/12/03 04:49:45;;;;;;;41.20;24.27;;;;;;;;;;5072703;28;20209;-58
2023/12/03 04:52:11;;;;;;;42.53;24.13;;;;;;;;;;5072373;28;20654;-58
2023/12/03 04:54:38;;;;;;;38.80;23.90;;;;;;;;;;5072616;28;20290;-58
2023/12/03 04:57:05;;;;;;;43.37;24.60;;;;;;;;;;5072472;28;20191;-58
2023/12/03 04:59:31;;;;;;;45.73;25.03;;;;;;;;;;5072189;28;20474;-58
2023/12/03 05:01:57;;;;;;;42.93;25.13;;;;;;;;;;5072489;28;20441;-62
2023/12/03 05:04:25;;;;;;;42.33;23.97;;;;;;;;;;5072332;28;20537;-58
2023/12/03 05:06:51;;;;;;;38.90;25.13;;;;;;;;;;5072511;28;20203;-58
2023/12/03 05:09:17;;;;;;;42.83;25.30;;;;;;;;;;5072227;28;20429;-58
2023/12/03 05:11:44;;;;;;;41.63;24.13;;;;;;;;;;5072297;28;20426;-58
2023/12/03 05:14:11;;;;;;;35.70;23.03;;;;;;;;;;5072212;28;20437;-57
2023/12/03 05:16:37;;;;;;;40.37;24.27;;;;;;;;;;5072445;28;20537;-57
2023/12/03 05:19:03;;;;;;;36.47;23.83;;;;;;;;;;5072079;28;20474;-57
2023/12/03 05:21:30;;;;;;;35.37;23.10;;;;;;;;;;5072123;28;20430;-57
2023/12/03 05:23:55;;;;;;;35.70;23.33;;;;;;;;;;5072073;28;20947;-57
2023/12/03 05:26:21;;;;;;;41.60;24.50;;;;;;;;;;5072045;28;20426;-57
2023/12/03 05:28:47;;;;;;;38.07;24.57;;;;;;;;;;5072162;28;20547;-57
2023/12/03 05:31:15;;;;;;;36.37;23.23;;;;;;;;;;5071804;28;20248;-58
2023/12/03 05:33:41;;;;;;;41.50;23.97;;;;;;;;;;5072231;28;20238;-58
2023/12/03 05:36:08;;;;;;;39.30;23.43;;;;;;;;;;5071866;28;20472;-56
2023/12/03 05:38:34;;;;;;;39.63;25.17;;;;;;;;;;5071670;28;21032;-56
2023/12/03 05:41:00;;;;;;;35.57;22.57;;;;;;;;;;5072115;28;20430;-57
2023/12/03 05:43:26;;;;;;;39.90;24.20;;;;;;;;;;5071769;28;20541;-56
2023/12/03 05:45:52;;;;;;;42.83;25.27;;;;;;;;;;5071786;28;20239;-56
2023/12/03 05:48:21;;;;;;;41.57;25.03;;;;;;;;;;5071531;28;20191;-56
2023/12/03 05:50:47;;;;;;;43.17;25.10;;;;;;;;;;5071789;28;20203;-57
2023/12/03 05:53:13;;;;;;;45.90;24.33;;;;;;;;;;5071771;28;20480;-56
2023/12/03 05:55:39;;;;;;;43.30;25.50;;;;;;;;;;5071788;28;21085;-56
2023/12/03 05:58:05;;;;;;;41.37;23.70;;;;;;;;;;5071765;28;20570;-57
2023/12/03 06:00:31;;;;;;;40.83;23.90;;;;;;;;;;5071685;28;20860;-58
2023/12/03 06:02:59;;;;;;;43.97;25.83;;;;;;;;;;5071602;28;20199;-56
2023/12/03 06:05:26;;;;;;;45.50;25.70;;;;;;;;;;5071636;28;20430;-57
2023/12/03 06:07:52;;;;;;;45.23;26.00;;;;;;;;;;5071730;28;20437;-57
2023/12/03 06:10:18;;;;;;;41.37;24.47;;;;;;;;;;5071421;28;20421;-57
2023/12/03 06:12:44;;;;;;;43.70;24.73;;;;;;;;;;5071705;28;20509;-57
2023/12/03 06:15:10;;;;;;;48.47;24.10;;;;;;;;;;5071456;28;20681;-58
2023/12/03 06:17:36;;;;;;;42.67;24.00;;;;;;;;;;5071693;28;20204;-58
2023/12/03 06:20:03;;;;;;;44.23;24.87;;;;;;;;;;5071340;28;20513;-58
2023/12/03 06:22:30;;;;;;;43.70;24.67;;;;;;;;;;5071473;28;20209;-58
2023/12/03 06:24:57;;;;;;;44.93;24.13;;;;;;;;;;5071658;28;20464;-58
2023/12/03 06:27:23;;;;;;;43.83;25.13;;;;;;;;;;5071262;28;20794;-59
2023/12/03 06:29:48;;;;;;;43.93;23.60;;;;;;;;;;5071492;28;20438;-58
2023/12/03 06:32:14;;;;;;;43.60;23.80;;;;;;;;;;5071353;28;20476;-58
2023/12/03 06:34:40;;;;;;;41.20;24.53;;;;;;;;;;5071474;28;20631;-58
2023/12/03 06:37:08;;;;;;;39.87;24.43;;;;;;;;;;5052737;28;20204;-58
2023/12/03 06:39:35;;;;;;;41.30;23.37;;;;;;;;;;5051030;28;20477;-58
2023/12/03 06:42:02;;;;;;;44.80;24.53;;;;;;;;;;5051258;28;20940;-58
2023/12/03 06:44:28;;;;;;;44.57;25.20;;;;;;;;;;5051102;28;20484;-58
2023/12/03 06:46:54;;;;;;;43.93;23.33;;;;;;;;;;5051209;28;20518;-58
2023/12/03 06:49:20;;;;;;;44.40;24.13;;;;;;;;;;5051180;28;20227;-58
2023/12/03 06:51:46;;;;;;;40.97;23.77;;;;;;;;;;5051267;28;20830;-58
2023/12/03 06:54:12;;;;;;;40.03;23.40;;;;;;;;;;5051292;28;20203;-58
2023/12/03 06:56:39;;;;;;;39.07;22.73;;;;;;;;;;5051163;28;20651;-56
2023/12/03 06:59:05;;;;;;;40.00;23.40;;;;;;;;;;5051103;28;20640;-57
2023/12/03 07:01:31;;;;;;;43.23;24.30;;;;;;;;;;5053974;28;20430;-57
2023/12/03 07:03:57;;;;;;;39.20;24.30;;;;;;;;;;5054458;28;20197;-57
2023/12/03 07:06:23;;;;;;;40.13;23.80;;;;;;;;;;5054594;28;20288;-58
2023/12/03 07:08:49;;;;;;;41.67;24.10;;;;;;;;;;5054606;28;20198;-58
2023/12/03 07:11:15;;;;;;;39.93;24.37;;;;;;;;;;5054679;28;20437;-57
2023/12/03 07:13:43;;;;;;;34.43;22.07;;;;;;;;;;5051048;28;20933;-57
2023/12/03 07:16:10;;;;;;;38.27;22.20;;;;;;;;;;5040418;28;20461;-57
2023/12/03 07:18:36;;;;;;;38.63;23.03;;;;;;;;;;5041967;28;20524;-57
2023/12/03 07:21:02;;;;;;;37.37;23.10;;;;;;;;;;5041959;28;20446;-57
2023/12/03 07:23:28;;;;;;;41.10;24.40;;;;;;;;;;5042109;28;20247;-57
2023/12/03 07:25:54;;;;;;;37.37;23.97;;;;;;;;;;5040565;28;20933;-57
2023/12/03 07:28:20;;;;;;;44.73;23.93;;;;;;;;;;5041935;28;20211;-57
2023/12/03 07:30:48;;;;;;;41.27;23.47;;;;;;;;;;5040466;28;20549;-58
2023/12/03 07:33:14;;;;;;;42.17;24.40;;;;;;;;;;5042072;28;20446;-57
2023/12/03 07:35:40;;;;;;;49.97;25.90;;;;;;;;;;5038594;28;20431;-57
2023/12/03 07:38:06;;;;;;;49.23;28.13;;;;;;;;;;5041962;28;20223;-58
2023/12/03 07:40:32;;;;;;;50.97;25.13;;;;;;;;;;5041208;28;20200;-58
2023/12/03 07:42:59;;;;;;;49.07;27.50;;;;;;;;;;5041767;28;20262;-58
2023/12/03 07:45:25;;;;;;;54.80;27.57;;;;;;;;;;5041635;28;20244;-58
2023/12/03 07:47:52;;;;;;;54.10;28.17;;;;;;;;;;5041568;28;20434;-58
2023/12/03 07:50:18;;;;;;;51.27;27.37;;;;;;;;;;5039934;28;20571;-57
2023/12/03 07:52:44;;;;;;;57.90;29.30;;;;;;;;;;5041610;28;21022;-57
2023/12/03 07:55:10;;;;;;;57.73;27.93;;;;;;;;;;5039907;28;20525;-58
2023/12/03 07:57:36;;;;;;;55.07;28.47;;;;;;;;;;5043386;28;20196;-58
2023/12/03 08:00:04;;;;;;;61.30;28.20;;;;;;;;;;5042679;28;20474;-58
2023/12/03 08:02:30;;;;;;;52.47;27.17;;;;;;;;;;5041407;28;20431;-56
2023/12/03 08:04:58;;;;;;;57.73;27.23;;;;;;;;;;5042668;28;20443;-57
2023/12/03 08:07:24;;;;;;;54.00;28.10;;;;;;;;;;5040551;28;20529;-58
2023/12/03 08:09:51;;;;;;;51.87;26.87;;;;;;;;;;5039016;28;20522;-58
2023/12/03 08:12:17;;;;;;;58.50;28.60;;;;;;;;;;5038207;28;20212;-57
2023/12/03 08:14:43;;;;;;;62.60;32.97;;;;;;;;;;5039935;28;20909;-57
2023/12/03 08:17:12;;;;;;;59.13;28.57;;;;;;;;;;5035491;28;20492;-57
2023/12/03 08:25:41;;;;;;;64.37;29.50;;;;;;;;;;4938682;29;20955;-46
2023/12/03 08:28:07;;;;;;;65.10;29.97;;;;;;;;;;4938548;28;20479;-47
2023/12/03 08:30:33;;;;;;;55.30;27.60;;;;;;;;;;4940780;28;20668;-46
2023/12/03 08:32:59;;;;;;;52.00;27.07;;;;;;;;;;4941627;28;20846;-47
2023/12/03 08:35:25;;;;;;;55.97;27.27;;;;;;;;;;4943988;28;20596;-48
2023/12/03 08:37:51;;;;;;;50.70;25.47;;;;;;;;;;4960846;28;20582;-47
2023/12/03 08:40:17;;;;;;;42.10;23.50;;;;;;;;;;4959535;28;20246;-50
2023/12/03 08:42:44;;;;;;;38.93;23.80;;;;;;;;;;4959807;28;20195;-49
2023/12/03 08:45:10;;;;;;;37.23;22.87;;;;;;;;;;4960348;28;20529;-46
2023/12/03 08:47:36;;;;;;;34.83;20.93;;;;;;;;;;4957931;28;20984;-46
2023/12/03 08:50:04;;;;;;;35.23;20.40;;;;;;;;;;4960858;28;20430;-45
2023/12/03 08:52:30;;;;;;;31.83;19.77;;;;;;;;;;4960800;28;20203;-45
2023/12/03 08:55:00;;;;;;;30.47;19.50;;;;;;;;;;4964337;28;20445;-46
2023/12/03 08:57:26;;;;;;;32.80;20.17;;;;;;;;;;4968906;28;20446;-45
2023/12/03 08:59:54;;;;;;;33.63;20.57;;;;;;;;;;4972450;28;20590;-45
2023/12/03 09:02:20;;;;;;;32.60;19.30;;;;;;;;;;4972057;28;20477;-45
2023/12/03 09:04:46;;;;;;;29.27;19.87;;;;;;;;;;4972185;28;20984;-45
2023/12/03 09:07:13;;;;;;;30.07;18.87;;;;;;;;;;4972647;28;20443;-45
2023/12/03 09:09:42;;;;;;;31.73;19.07;;;;;;;;;;4972583;28;20203;-46
2023/12/03 09:12:08;;;;;;;30.93;18.43;;;;;;;;;;4973251;28;20438;-45
2023/12/03 09:14:35;;;;;;;33.03;19.20;;;;;;;;;;4973107;28;20529;-45
2023/12/03 09:17:03;;;;;;;27.83;18.30;;;;;;;;;;4973022;28;20513;-46
2023/12/03 09:19:30;;;;;;;32.93;18.47;;;;;;;;;;4972823;28;20514;-45
2023/12/03 09:21:56;;;;;;;29.73;18.27;;;;;;;;;;4972842;28;20986;-45
2023/12/03 09:24:22;;;;;;;33.93;20.40;;;;;;;;;;4972568;28;20456;-45
2023/12/03 09:26:48;;;;;;;33.07;19.60;;;;;;;;;;4972441;28;20480;-46
2023/12/03 09:29:15;;;;;;;32.87;19.30;;;;;;;;;;4973049;28;20808;-46
2023/12/03 09:31:41;;;;;;;32.80;20.47;;;;;;;;;;4972492;28;20521;-47
2023/12/03 09:34:08;;;;;;;34.23;19.67;;;;;;;;;;4972307;28;20872;-46
2023/12/03 09:36:37;;;;;;;39.27;20.17;;;;;;;;;;4972558;28;20441;-47
2023/12/03 09:39:06;;;;;;;31.33;18.87;;;;;;;;;;4972712;28;20492;-46
2023/12/03 09:41:36;;;;;;;29.10;18.60;;;;;;;;;;4972635;28;20497;-47
2023/12/03 09:44:05;;;;;;;32.33;18.70;;;;;;;;;;4972795;28;20438;-46
2023/12/03 09:46:33;;;;;;;34.27;19.30;;;;;;;;;;4972904;28;20453;-46
2023/12/03 09:49:00;;;;;;;30.77;19.00;;;;;;;;;;4972472;28;20513;-46
2023/12/03 09:51:29;;;;;;;29.13;18.07;;;;;;;;;;4972922;28;20431;-47
2023/12/03 09:53:58;;;;;;;31.77;18.33;;;;;;;;;;4972862;28;20450;-47
2023/12/03 09:56:25;;;;;;;30.23;18.30;;;;;;;;;;4972321;28;20438;-45
2023/12/03 09:58:51;;;;;;;30.03;16.77;;;;;;;;;;4972206;28;20521;-45
2023/12/03 10:01:17;;;;;;;30.03;17.33;;;;;;;;;;4972691;28;20446;-46
2023/12/03 10:03:43;;;;;;;32.23;17.77;;;;;;;;;;4972411;28;20506;-47
2023/12/03 10:06:11;;;;;;;30.70;18.43;;;;;;;;;;4972651;28;20207;-45
2023/12/03 10:08:41;;;;;;;30.27;17.53;;;;;;;;;;4972222;28;20497;-45
2023/12/03 10:11:07;;;;;;;30.77;18.87;;;;;;;;;;4972317;28;20474;-45
2023/12/03 10:13:36;;;;;;;26.10;16.97;;;;;;;;;;4972144;28;20458;-45
2023/12/03 10:16:02;;;;;;;25.40;17.27;;;;;;;;;;4972190;28;20525;-45
2023/12/03 10:18:28;;;;;;;28.33;17.57;;;;;;;;;;4972442;28;20438;-47
2023/12/03 10:21:06;;;;;;;28.47;17.53;;;;;;;;;;4972250;28;20446;-45
2023/12/03 10:23:32;;;;;;;28.47;17.43;;;;;;;;;;4972173;28;20871;-47
2023/12/03 10:26:08;;;;;;;29.33;19.53;;;;;;;;;;4968966;28;20460;-48
2023/12/03 10:28:34;;;;;;;28.80;18.57;;;;;;;;;;4972103;28;20464;-45
2023/12/03 10:31:00;;;;;;;29.93;18.70;;;;;;;;;;4972137;28;20470;-45
2023/12/03 10:33:27;;;;;;;30.43;18.77;;;;;;;;;;4972122;28;20474;-46
2023/12/03 10:35:53;;;;;;;32.80;18.77;;;;;;;;;;4974053;28;20565;-46
2023/12/03 10:38:19;;;;;;;33.57;19.63;;;;;;;;;;4975948;28;20934;-46
2023/12/03 10:40:47;;;;;;;31.37;18.10;;;;;;;;;;4975597;28;20195;-46
2023/12/03 10:43:15;;;;;;;29.20;19.10;;;;;;;;;;4975711;28;20442;-45
2023/12/03 10:45:41;;;;;;;31.53;19.30;;;;;;;;;;4967143;28;20446;-46
2023/12/03 10:48:07;;;;;;;32.30;19.43;;;;;;;;;;4962143;28;20462;-46
2023/12/03 10:50:36;;;;;;;30.00;19.50;;;;;;;;;;4965514;28;20609;-46
2023/12/03 10:53:02;;;;;;;32.13;21.03;;;;;;;;;;4963301;28;20446;-46
2023/12/03 10:55:28;;;;;;;33.67;22.30;;;;;;;;;;4963467;28;20971;-46
2023/12/03 10:57:56;;;;;;;32.60;20.33;;;;;;;;;;4963574;28;20457;-46
2023/12/03 11:00:25;;;;;;;33.97;22.50;;;;;;;;;;4962488;28;20999;-46
2023/12/03 11:02:55;;;;;;;30.47;20.53;;;;;;;;;;4963121;28;20591;-46
2023/12/03 11:05:25;;;;;;;29.37;19.90;;;;;;;;;;4961897;28;20502;-46
2023/12/03 11:07:51;;;;;;;32.07;19.37;;;;;;;;;;4963378;28;20802;-47
2023/12/03 11:10:18;;;;;;;33.97;18.50;;;;;;;;;;4963009;28;20442;-46
2023/12/03 11:12:44;;;;;;;29.70;18.27;;;;;;;;;;4964382;28;20683;-46
2023/12/03 11:15:11;;;;;;;24.90;17.57;;;;;;;;;;4963562;28;20449;-46
2023/12/03 11:17:41;;;;;;;26.27;17.20;;;;;;;;;;4963069;28;20207;-47
2023/12/03 11:20:08;;;;;;;22.17;15.67;;;;;;;;;;4962746;28;20486;-46
2023/12/03 11:22:41;;;;;;;22.07;15.00;;;;;;;;;;4963090;28;20458;-46
2023/12/03 11:25:08;;;;;;;23.00;14.90;;;;;;;;;;4962762;28;20952;-46
2023/12/03 11:27:34;;;;;;;25.03;15.67;;;;;;;;;;4964647;28;20564;-46
2023/12/03 11:30:04;;;;;;;23.17;14.57;;;;;;;;;;4963040;28;20884;-47
2023/12/03 11:32:30;;;;;;;20.70;14.20;;;;;;;;;;4964902;28;20206;-46
2023/12/03 11:34:59;;;;;;;22.47;14.33;;;;;;;;;;4960109;28;20533;-47
2023/12/03 11:37:27;;;;;;;19.30;13.17;;;;;;;;;;4962424;28;20434;-47
2023/12/03 11:39:54;;;;;;;17.93;13.30;;;;;;;;;;4962173;28;20916;-47
2023/12/03 11:42:23;;;;;;;20.60;13.23;;;;;;;;;;4962431;28;20497;-47
2023/12/03 11:44:49;;;;;;;17.90;12.77;;;;;;;;;;4962441;28;20435;-47
2023/12/03 11:47:15;;;;;;;20.23;11.77;;;;;;;;;;4962012;28;20948;-47
2023/12/03 11:49:41;;;;;;;18.73;11.77;;;;;;;;;;4962570;28;20850;-47
2023/12/03 11:52:11;;;;;;;18.80;12.57;;;;;;;;;;4961487;28;20526;-48
2023/12/03 11:54:38;;;;;;;24.47;18.13;;;;;;;;;;4956832;28;20505;-47
2023/12/03 11:57:12;;;;;;;19.20;12.50;;;;;;;;;;4961705;28;20450;-47
2023/12/03 11:59:37;;;;;;;17.33;11.77;;;;;;;;;;4963547;28;20474;-47
2023/12/03 12:02:04;;;;;;;16.57;12.13;;;;;;;;;;4962315;28;20508;-48
2023/12/03 12:04:31;;;;;;;17.03;11.27;;;;;;;;;;4962553;28;20566;-47
2023/12/03 12:06:57;;;;;;;20.13;13.20;;;;;;;;;;4960475;28;20446;-47
2023/12/03 12:09:25;;;;;;;17.77;12.03;;;;;;;;;;4963062;28;20538;-48
2023/12/03 12:11:52;;;;;;;20.50;13.10;;;;;;;;;;4961018;28;20811;-48
2023/12/03 12:14:18;;;;;;;17.00;12.87;;;;;;;;;;4961267;28;20438;-48
2023/12/03 12:16:45;;;;;;;17.83;12.77;;;;;;;;;;4961068;28;20442;-47
2023/12/03 12:19:11;;;;;;;21.07;12.93;;;;;;;;;;4961230;28;20549;-47
2023/12/03 12:21:50;;;;;;;19.20;12.63;;;;;;;;;;4962602;28;20477;-47
2023/12/03 12:24:16;;;;;;;18.87;12.87;;;;;;;;;;4962712;28;20679;-47
2023/12/03 12:26:43;;;;;;;20.53;13.17;;;;;;;;;;4962559;28;20545;-47
2023/12/03 12:29:09;;;;;;;22.17;14.57;;;;;;;;;;4961211;28;20527;-47
2023/12/03 12:31:35;;;;;;;19.30;13.13;;;;;;;;;;4960823;28;20447;-47
2023/12/03 12:34:01;;;;;;;19.43;14.33;;;;;;;;;;4960668;28;20784;-47
2023/12/03 12:36:27;;;;;;;18.80;12.67;;;;;;;;;;4962558;28;20450;-48
2023/12/03 12:38:54;;;;;;;20.30;13.20;;;;;;;;;;4962013;28;20513;-46
2023/12/03 12:41:21;;;;;;;19.20;12.87;;;;;;;;;;4960120;28;20620;-46
2023/12/03 12:43:55;;;;;;;20.67;13.23;;;;;;;;;;4961181;28;21035;-46
2023/12/03 12:46:21;;;;;;;21.23;12.83;;;;;;;;;;4962465;28;20430;-46
2023/12/03 12:48:47;;;;;;;16.87;11.83;;;;;;;;;;4962010;28;20442;-46
2023/12/03 12:51:20;;;;;;;16.87;11.20;;;;;;;;;;4960642;28;20806;-46
2023/12/03 12:53:52;;;;;;;19.20;11.57;;;;;;;;;;4960367;28;20498;-46
2023/12/03 12:56:18;;;;;;;19.17;12.83;;;;;;;;;;4960111;28;20438;-46
2023/12/03 12:58:45;;;;;;;17.17;11.43;;;;;;;;;;4961009;28;20530;-46
2023/12/03 13:01:12;;;;;;;18.53;11.13;;;;;;;;;;4963635;28;20458;-46
2023/12/03 13:03:40;;;;;;;19.77;12.17;;;;;;;;;;4960341;28;20233;-46
2023/12/03 13:06:06;;;;;;;19.83;12.83;;;;;;;;;;4958768;28;20446;-46
2023/12/03 13:08:32;;;;;;;20.20;12.93;;;;;;;;;;4959340;28;20553;-46
2023/12/03 13:10:58;;;;;;;19.93;13.73;;;;;;;;;;4962819;28;20550;-46
2023/12/03 13:13:24;;;;;;;25.97;14.93;;;;;;;;;;4964952;28;20195;-46
2023/12/03 13:15:50;;;;;;;23.03;13.70;;;;;;;;;;4961107;28;20439;-46
2023/12/03 13:18:17;;;;;;;22.20;13.67;;;;;;;;;;4961051;28;20683;-46
2023/12/03 13:20:43;;;;;;;21.77;13.03;;;;;;;;;;4961207;28;21020;-47
2023/12/03 13:23:09;;;;;;;26.70;14.93;;;;;;;;;;4959324;28;20960;-47
2023/12/03 13:25:35;;;;;;;22.83;14.13;;;;;;;;;;4961085;28;20207;-47
2023/12/03 13:28:01;;;;;;;23.37;14.17;;;;;;;;;;4959080;28;20670;-47
2023/12/03 13:30:27;;;;;;;23.07;14.10;;;;;;;;;;4962583;28;20210;-47
2023/12/03 13:32:53;;;;;;;21.10;14.43;;;;;;;;;;4960436;28;20205;-47
2023/12/03 13:35:21;;;;;;;22.13;13.90;;;;;;;;;;4961271;28;20502;-47
2023/12/03 13:37:47;;;;;;;23.27;14.27;;;;;;;;;;4972630;28;20464;-47
2023/12/03 13:40:13;;;;;;;25.07;15.00;;;;;;;;;;4972611;28;20903;-47
2023/12/03 13:42:39;;;;;;;23.33;14.30;;;;;;;;;;4971082;28;20856;-47
2023/12/03 13:45:05;;;;;;;25.00;14.47;;;;;;;;;;4972329;28;20932;-47
2023/12/03 13:47:32;;;;;;;23.23;14.37;;;;;;;;;;4972685;28;20517;-47
2023/12/03 13:49:58;;;;;;;21.97;15.53;;;;;;;;;;4972444;28;20435;-47
2023/12/03 13:52:25;;;;;;;22.47;14.30;;;;;;;;;;4969173;28;20454;-47
2023/12/03 13:54:51;;;;;;;23.83;15.83;;;;;;;;;;4972664;28;20446;-47
2023/12/03 13:57:17;;;;;;;24.43;15.83;;;;;;;;;;4972557;28;20445;-47
2023/12/03 13:59:44;;;;;;;28.10;16.90;;;;;;;;;;4972572;28;20898;-47
2023/12/03 14:02:10;;;;;;;28.43;16.33;;;;;;;;;;4972507;28;20549;-47
2023/12/03 14:04:36;;;;;;;26.90;16.50;;;;;;;;;;4972584;28;20500;-47
2023/12/03 14:07:02;;;;;;;29.83;16.47;;;;;;;;;;4972245;28;20450;-47
2023/12/03 14:09:29;;;;;;;27.53;15.50;;;;;;;;;;4970713;28;20924;-47
2023/12/03 14:11:55;;;;;;;28.57;17.53;;;;;;;;;;4974591;28;20438;-47
2023/12/03 14:14:21;;;;;;;28.30;17.40;;;;;;;;;;4969372;28;20805;-47
2023/12/03 14:16:57;;;;;;;28.10;18.07;;;;;;;;;;4969554;28;21112;-47
2023/12/03 14:19:23;;;;;;;32.23;18.93;;;;;;;;;;4973024;28;20477;-47